Terminal Aerodrome Forecast
Issued by NWS Tulsa, OK

Home | Current Version | Previous Version | Text Only | Print | Product List | Glossary On
Versions: 1 2 3 4 5 6 7 8 9 10 11 12 13 14
571
FTUS44 KTSA 122332
TAFTUL
TAF
KTUL 122332Z 1300/1324 03010KT P6SM SKC
     FM130400 02010KT P6SM BKN200
     FM131500 06008KT P6SM BKN200
     FM132100 15011KT P6SM FEW030 BKN200=

USA.gov is the U.S. government's official web portal to all federal, state and local government web resources and services.